sensor_id;sensor_type;location;lat;lon;timestamp;P1;durP1;ratioP1;P2;durP2;ratioP2
56285;SDS011;42191;47.562;9.686;2023-06-14T00:01:46;33.75;;;31.65;;
56285;SDS011;42191;47.562;9.686;2023-06-14T00:04:13;34.70;;;32.50;;
56285;SDS011;42191;47.562;9.686;2023-06-14T00:06:43;34.03;;;31.88;;
56285;SDS011;42191;47.562;9.686;2023-06-14T00:09:10;32.38;;;30.33;;
56285;SDS011;42191;47.562;9.686;2023-06-14T00:11:42;34.27;;;32.17;;
56285;SDS011;42191;47.562;9.686;2023-06-14T00:14:08;34.85;;;32.40;;
56285;SDS011;42191;47.562;9.686;2023-06-14T00:16:35;34.03;;;31.92;;
56285;SDS011;42191;47.562;9.686;2023-06-14T00:19:02;34.53;;;32.42;;
56285;SDS011;42191;47.562;9.686;2023-06-14T00:21:29;34.47;;;32.13;;
56285;SDS011;42191;47.562;9.686;2023-06-14T00:23:57;34.10;;;32.00;;
56285;SDS011;42191;47.562;9.686;2023-06-14T00:26:23;35.25;;;32.95;;
56285;SDS011;42191;47.562;9.686;2023-06-14T00:28:51;32.83;;;30.80;;
56285;SDS011;42191;47.562;9.686;2023-06-14T00:31:17;34.88;;;32.78;;
56285;SDS011;42191;47.562;9.686;2023-06-14T00:33:43;35.03;;;32.72;;
56285;SDS011;42191;47.562;9.686;2023-06-14T00:36:10;35.15;;;32.67;;
56285;SDS011;42191;47.562;9.686;2023-06-14T00:38:36;34.22;;;32.08;;
56285;SDS011;42191;47.562;9.686;2023-06-14T00:41:02;36.05;;;33.80;;
56285;SDS011;42191;47.562;9.686;2023-06-14T00:43:28;35.85;;;33.55;;
56285;SDS011;42191;47.562;9.686;2023-06-14T00:45:54;35.28;;;32.97;;
56285;SDS011;42191;47.562;9.686;2023-06-14T00:48:20;35.78;;;33.47;;
56285;SDS011;42191;47.562;9.686;2023-06-14T00:50:48;36.80;;;34.30;;
56285;SDS011;42191;47.562;9.686;2023-06-14T00:53:16;34.88;;;32.58;;
56285;SDS011;42191;47.562;9.686;2023-06-14T00:55:42;35.38;;;33.17;;
56285;SDS011;42191;47.562;9.686;2023-06-14T00:58:09;34.75;;;32.63;;
56285;SDS011;42191;47.562;9.686;2023-06-14T01:00:36;35.35;;;33.05;;
56285;SDS011;42191;47.562;9.686;2023-06-14T01:03:02;35.33;;;33.13;;
56285;SDS011;42191;47.562;9.686;2023-06-14T01:05:29;35.85;;;33.60;;
56285;SDS011;42191;47.562;9.686;2023-06-14T01:08:05;36.00;;;33.75;;
56285;SDS011;42191;47.562;9.686;2023-06-14T01:15:58;36.55;;;34.25;;
56285;SDS011;42191;47.562;9.686;2023-06-14T01:18:25;35.63;;;33.38;;
56285;SDS011;42191;47.562;9.686;2023-06-14T01:20:54;34.97;;;32.47;;
56285;SDS011;42191;47.562;9.686;2023-06-14T01:23:21;34.80;;;32.50;;
56285;SDS011;42191;47.562;9.686;2023-06-14T01:25:49;35.47;;;33.13;;
56285;SDS011;42191;47.562;9.686;2023-06-14T01:28:19;36.80;;;34.20;;
56285;SDS011;42191;47.562;9.686;2023-06-14T01:30:47;34.90;;;32.70;;
56285;SDS011;42191;47.562;9.686;2023-06-14T01:33:21;35.65;;;33.45;;
56285;SDS011;42191;47.562;9.686;2023-06-14T01:35:49;36.72;;;34.42;;
56285;SDS011;42191;47.562;9.686;2023-06-14T01:38:17;36.10;;;33.80;;
56285;SDS011;42191;47.562;9.686;2023-06-14T01:40:45;35.88;;;33.58;;
56285;SDS011;42191;47.562;9.686;2023-06-14T01:43:12;33.67;;;31.58;;
56285;SDS011;42191;47.562;9.686;2023-06-14T01:45:41;34.33;;;32.20;;
56285;SDS011;42191;47.562;9.686;2023-06-14T01:48:09;35.75;;;33.45;;
56285;SDS011;42191;47.562;9.686;2023-06-14T01:50:35;34.80;;;32.63;;
56285;SDS011;42191;47.562;9.686;2023-06-14T01:53:01;36.08;;;33.78;;
56285;SDS011;42191;47.562;9.686;2023-06-14T01:55:27;36.00;;;33.70;;
56285;SDS011;42191;47.562;9.686;2023-06-14T01:57:53;37.13;;;34.83;;
56285;SDS011;42191;47.562;9.686;2023-06-14T02:00:20;36.17;;;33.78;;
56285;SDS011;42191;47.562;9.686;2023-06-14T02:02:46;35.92;;;33.63;;
56285;SDS011;42191;47.562;9.686;2023-06-14T02:05:12;34.08;;;31.95;;
56285;SDS011;42191;47.562;9.686;2023-06-14T02:07:40;34.42;;;32.28;;
56285;SDS011;42191;47.562;9.686;2023-06-14T02:10:06;35.47;;;33.28;;
56285;SDS011;42191;47.562;9.686;2023-06-14T02:12:33;34.67;;;32.47;;
56285;SDS011;42191;47.562;9.686;2023-06-14T02:14:59;37.47;;;35.17;;
56285;SDS011;42191;47.562;9.686;2023-06-14T02:17:25;34.83;;;32.60;;
56285;SDS011;42191;47.562;9.686;2023-06-14T02:19:51;35.65;;;33.42;;
56285;SDS011;42191;47.562;9.686;2023-06-14T02:22:17;36.38;;;34.10;;
56285;SDS011;42191;47.562;9.686;2023-06-14T02:24:45;37.35;;;34.60;;
56285;SDS011;42191;47.562;9.686;2023-06-14T02:27:12;36.00;;;33.70;;
56285;SDS011;42191;47.562;9.686;2023-06-14T02:29:38;35.88;;;33.58;;
56285;SDS011;42191;47.562;9.686;2023-06-14T02:32:04;35.78;;;33.47;;
56285;SDS011;42191;47.562;9.686;2023-06-14T02:34:32;36.33;;;34.00;;
56285;SDS011;42191;47.562;9.686;2023-06-14T02:36:59;35.38;;;33.10;;
56285;SDS011;42191;47.562;9.686;2023-06-14T02:39:27;35.58;;;33.20;;
56285;SDS011;42191;47.562;9.686;2023-06-14T02:41:54;36.20;;;33.83;;
56285;SDS011;42191;47.562;9.686;2023-06-14T02:44:24;35.58;;;33.33;;
56285;SDS011;42191;47.562;9.686;2023-06-14T02:46:52;35.33;;;33.13;;
56285;SDS011;42191;47.562;9.686;2023-06-14T02:49:21;35.20;;;33.00;;
56285;SDS011;42191;47.562;9.686;2023-06-14T02:51:48;35.70;;;33.40;;
56285;SDS011;42191;47.562;9.686;2023-06-14T02:54:14;38.47;;;35.97;;
56285;SDS011;42191;47.562;9.686;2023-06-14T02:56:40;35.45;;;33.10;;
56285;SDS011;42191;47.562;9.686;2023-06-14T02:59:06;35.42;;;33.00;;
56285;SDS011;42191;47.562;9.686;2023-06-14T03:01:34;36.95;;;34.63;;
56285;SDS011;42191;47.562;9.686;2023-06-14T03:04:03;35.63;;;33.17;;
56285;SDS011;42191;47.562;9.686;2023-06-14T03:06:30;36.83;;;34.42;;
56285;SDS011;42191;47.562;9.686;2023-06-14T03:08:56;35.80;;;33.60;;
56285;SDS011;42191;47.562;9.686;2023-06-14T03:13:55;35.45;;;33.05;;
56285;SDS011;42191;47.562;9.686;2023-06-14T03:16:21;36.97;;;34.67;;
56285;SDS011;42191;47.562;9.686;2023-06-14T03:18:52;37.25;;;34.60;;
56285;SDS011;42191;47.562;9.686;2023-06-14T03:21:18;36.00;;;33.75;;
56285;SDS011;42191;47.562;9.686;2023-06-14T03:23:45;35.33;;;33.10;;
56285;SDS011;42191;47.562;9.686;2023-06-14T03:26:12;37.20;;;34.85;;
56285;SDS011;42191;47.562;9.686;2023-06-14T03:28:40;38.00;;;35.50;;
56285;SDS011;42191;47.562;9.686;2023-06-14T03:31:06;37.58;;;35.17;;
56285;SDS011;42191;47.562;9.686;2023-06-14T03:33:33;36.60;;;34.30;;
56285;SDS011;42191;47.562;9.686;2023-06-14T03:36:00;36.90;;;34.55;;
56285;SDS011;42191;47.562;9.686;2023-06-14T03:38:27;36.45;;;34.22;;
56285;SDS011;42191;47.562;9.686;2023-06-14T03:40:54;37.47;;;35.17;;
56285;SDS011;42191;47.562;9.686;2023-06-14T03:43:20;37.45;;;34.95;;
56285;SDS011;42191;47.562;9.686;2023-06-14T03:45:46;36.72;;;34.42;;
56285;SDS011;42191;47.562;9.686;2023-06-14T03:48:12;37.95;;;35.55;;
56285;SDS011;42191;47.562;9.686;2023-06-14T03:50:38;38.08;;;35.67;;
56285;SDS011;42191;47.562;9.686;2023-06-14T03:53:06;36.38;;;34.10;;
56285;SDS011;42191;47.562;9.686;2023-06-14T03:55:32;35.92;;;33.63;;
56285;SDS011;42191;47.562;9.686;2023-06-14T03:57:58;35.20;;;33.08;;
56285;SDS011;42191;47.562;9.686;2023-06-14T04:00:24;37.65;;;34.95;;
56285;SDS011;42191;47.562;9.686;2023-06-14T04:02:51;37.08;;;34.78;;
56285;SDS011;42191;47.562;9.686;2023-06-14T04:05:18;36.33;;;33.83;;
56285;SDS011;42191;47.562;9.686;2023-06-14T04:07:45;38.00;;;35.50;;
56285;SDS011;42191;47.562;9.686;2023-06-14T04:10:14;37.15;;;34.85;;
56285;SDS011;42191;47.562;9.686;2023-06-14T04:12:41;37.03;;;34.72;;
56285;SDS011;42191;47.562;9.686;2023-06-14T04:15:07;37.17;;;34.88;;
56285;SDS011;42191;47.562;9.686;2023-06-14T04:17:34;36.05;;;33.83;;
56285;SDS011;42191;47.562;9.686;2023-06-14T04:20:02;37.22;;;34.92;;
56285;SDS011;42191;47.562;9.686;2023-06-14T04:22:34;36.33;;;34.03;;
56285;SDS011;42191;47.562;9.686;2023-06-14T04:25:01;37.42;;;34.67;;
56285;SDS011;42191;47.562;9.686;2023-06-14T04:27:27;35.88;;;33.58;;
56285;SDS011;42191;47.562;9.686;2023-06-14T04:29:56;36.83;;;34.53;;
56285;SDS011;42191;47.562;9.686;2023-06-14T04:32:25;35.50;;;33.30;;
56285;SDS011;42191;47.562;9.686;2023-06-14T04:34:55;35.58;;;33.25;;
56285;SDS011;42191;47.562;9.686;2023-06-14T04:37:22;36.60;;;34.40;;
56285;SDS011;42191;47.562;9.686;2023-06-14T04:39:49;36.38;;;34.08;;
56285;SDS011;42191;47.562;9.686;2023-06-14T04:42:16;37.95;;;35.47;;
56285;SDS011;42191;47.562;9.686;2023-06-14T04:44:45;35.63;;;33.33;;
56285;SDS011;42191;47.562;9.686;2023-06-14T04:47:12;37.40;;;35.03;;
56285;SDS011;42191;47.562;9.686;2023-06-14T04:49:41;37.13;;;34.83;;
56285;SDS011;42191;47.562;9.686;2023-06-14T04:52:07;35.60;;;33.40;;
56285;SDS011;42191;47.562;9.686;2023-06-14T04:54:35;35.50;;;33.15;;
56285;SDS011;42191;47.562;9.686;2023-06-14T04:57:06;36.97;;;34.60;;
56285;SDS011;42191;47.562;9.686;2023-06-14T04:59:33;36.92;;;34.63;;
56285;SDS011;42191;47.562;9.686;2023-06-14T05:02:00;34.40;;;32.20;;
56285;SDS011;42191;47.562;9.686;2023-06-14T05:04:27;36.63;;;34.33;;
56285;SDS011;42191;47.562;9.686;2023-06-14T05:06:54;36.42;;;34.13;;
56285;SDS011;42191;47.562;9.686;2023-06-14T05:09:20;36.40;;;34.10;;
56285;SDS011;42191;47.562;9.686;2023-06-14T05:11:46;36.10;;;33.83;;
56285;SDS011;42191;47.562;9.686;2023-06-14T05:14:13;36.35;;;33.95;;
56285;SDS011;42191;47.562;9.686;2023-06-14T05:16:39;36.33;;;34.08;;
56285;SDS011;42191;47.562;9.686;2023-06-14T05:19:06;35.60;;;33.20;;
56285;SDS011;42191;47.562;9.686;2023-06-14T05:21:32;37.25;;;34.83;;
56285;SDS011;42191;47.562;9.686;2023-06-14T05:24:02;36.83;;;34.53;;
56285;SDS011;42191;47.562;9.686;2023-06-14T05:26:28;35.00;;;32.80;;
56285;SDS011;42191;47.562;9.686;2023-06-14T05:28:55;36.95;;;34.65;;
56285;SDS011;42191;47.562;9.686;2023-06-14T05:31:25;35.60;;;33.28;;
56285;SDS011;42191;47.562;9.686;2023-06-14T05:34:09;35.17;;;32.97;;
56285;SDS011;42191;47.562;9.686;2023-06-14T05:37:20;35.70;;;33.35;;
56285;SDS011;42191;47.562;9.686;2023-06-14T05:39:51;34.53;;;32.33;;
56285;SDS011;42191;47.562;9.686;2023-06-14T05:42:18;36.45;;;34.15;;
56285;SDS011;42191;47.562;9.686;2023-06-14T05:44:44;35.35;;;33.05;;
56285;SDS011;42191;47.562;9.686;2023-06-14T05:47:10;35.72;;;33.42;;
56285;SDS011;42191;47.562;9.686;2023-06-14T05:49:36;36.53;;;34.03;;
56285;SDS011;42191;47.562;9.686;2023-06-14T05:52:02;37.00;;;34.50;;
56285;SDS011;42191;47.562;9.686;2023-06-14T05:54:28;36.17;;;33.90;;
56285;SDS011;42191;47.562;9.686;2023-06-14T05:56:54;35.70;;;33.45;;
56285;SDS011;42191;47.562;9.686;2023-06-14T05:59:21;37.47;;;35.03;;
56285;SDS011;42191;47.562;9.686;2023-06-14T06:01:50;36.08;;;33.75;;
56285;SDS011;42191;47.562;9.686;2023-06-14T06:04:16;35.15;;;32.80;;
56285;SDS011;42191;47.562;9.686;2023-06-14T06:06:42;34.97;;;32.78;;
56285;SDS011;42191;47.562;9.686;2023-06-14T06:09:08;35.17;;;32.78;;
56285;SDS011;42191;47.562;9.686;2023-06-14T06:11:34;35.15;;;32.95;;
56285;SDS011;42191;47.562;9.686;2023-06-14T06:14:00;34.78;;;32.58;;
56285;SDS011;42191;47.562;9.686;2023-06-14T06:16:26;34.00;;;31.80;;
56285;SDS011;42191;47.562;9.686;2023-06-14T06:18:52;36.67;;;33.97;;
56285;SDS011;42191;47.562;9.686;2023-06-14T06:21:19;36.08;;;33.65;;
56285;SDS011;42191;47.562;9.686;2023-06-14T06:23:45;35.22;;;32.90;;
56285;SDS011;42191;47.562;9.686;2023-06-14T06:26:11;36.25;;;33.95;;
56285;SDS011;42191;47.562;9.686;2023-06-14T06:28:37;34.83;;;32.55;;
56285;SDS011;42191;47.562;9.686;2023-06-14T06:31:03;34.95;;;32.75;;
56285;SDS011;42191;47.562;9.686;2023-06-14T06:33:30;37.05;;;34.60;;
56285;SDS011;42191;47.562;9.686;2023-06-14T06:35:56;36.47;;;34.08;;
56285;SDS011;42191;47.562;9.686;2023-06-14T06:38:22;37.67;;;35.28;;
56285;SDS011;42191;47.562;9.686;2023-06-14T06:40:48;35.38;;;33.00;;
56285;SDS011;42191;47.562;9.686;2023-06-14T06:43:14;35.95;;;33.55;;
56285;SDS011;42191;47.562;9.686;2023-06-14T06:45:42;36.00;;;33.60;;
56285;SDS011;42191;47.562;9.686;2023-06-14T06:48:08;36.92;;;34.53;;
56285;SDS011;42191;47.562;9.686;2023-06-14T06:50:35;34.85;;;32.30;;
56285;SDS011;42191;47.562;9.686;2023-06-14T06:53:01;35.80;;;33.50;;
56285;SDS011;42191;47.562;9.686;2023-06-14T06:55:28;36.25;;;33.85;;
56285;SDS011;42191;47.562;9.686;2023-06-14T06:57:54;34.58;;;32.10;;
56285;SDS011;42191;47.562;9.686;2023-06-14T07:00:20;33.47;;;31.27;;
56285;SDS011;42191;47.562;9.686;2023-06-14T07:02:47;35.60;;;32.97;;
56285;SDS011;42191;47.562;9.686;2023-06-14T07:05:13;35.63;;;33.33;;
56285;SDS011;42191;47.562;9.686;2023-06-14T07:07:39;33.92;;;31.73;;
56285;SDS011;42191;47.562;9.686;2023-06-14T07:10:05;35.63;;;33.25;;
56285;SDS011;42191;47.562;9.686;2023-06-14T07:12:32;35.03;;;32.72;;
56285;SDS011;42191;47.562;9.686;2023-06-14T07:15:01;36.13;;;33.53;;
56285;SDS011;42191;47.562;9.686;2023-06-14T07:17:27;33.67;;;31.48;;
56285;SDS011;42191;47.562;9.686;2023-06-14T07:19:53;34.72;;;32.42;;
56285;SDS011;42191;47.562;9.686;2023-06-14T07:22:19;34.45;;;32.25;;
56285;SDS011;42191;47.562;9.686;2023-06-14T07:24:46;34.33;;;32.05;;
56285;SDS011;42191;47.562;9.686;2023-06-14T07:27:12;34.45;;;32.25;;
56285;SDS011;42191;47.562;9.686;2023-06-14T07:29:38;33.80;;;31.50;;
56285;SDS011;42191;47.562;9.686;2023-06-14T07:32:04;32.05;;;30.05;;
56285;SDS011;42191;47.562;9.686;2023-06-14T07:34:31;35.42;;;32.90;;
56285;SDS011;42191;47.562;9.686;2023-06-14T07:36:57;33.75;;;31.55;;
56285;SDS011;42191;47.562;9.686;2023-06-14T07:39:23;34.20;;;32.00;;
56285;SDS011;42191;47.562;9.686;2023-06-14T07:41:49;34.10;;;31.95;;
56285;SDS011;42191;47.562;9.686;2023-06-14T07:44:15;33.03;;;30.92;;
56285;SDS011;42191;47.562;9.686;2023-06-14T07:46:41;35.60;;;33.03;;
56285;SDS011;42191;47.562;9.686;2023-06-14T07:49:08;34.25;;;31.95;;
56285;SDS011;42191;47.562;9.686;2023-06-14T07:51:34;35.50;;;33.00;;
56285;SDS011;42191;47.562;9.686;2023-06-14T07:54:00;35.45;;;33.10;;
56285;SDS011;42191;47.562;9.686;2023-06-14T07:56:27;35.60;;;33.22;;
56285;SDS011;42191;47.562;9.686;2023-06-14T07:58:53;34.38;;;32.08;;
56285;SDS011;42191;47.562;9.686;2023-06-14T08:01:19;34.50;;;32.30;;
56285;SDS011;42191;47.562;9.686;2023-06-14T08:03:46;34.35;;;32.08;;
56285;SDS011;42191;47.562;9.686;2023-06-14T08:06:12;34.50;;;32.30;;
56285;SDS011;42191;47.562;9.686;2023-06-14T08:08:38;35.10;;;32.45;;
56285;SDS011;42191;47.562;9.686;2023-06-14T08:11:04;34.15;;;31.92;;
56285;SDS011;42191;47.562;9.686;2023-06-14T08:13:30;34.28;;;32.03;;
56285;SDS011;42191;47.562;9.686;2023-06-14T08:15:56;34.00;;;31.80;;
56285;SDS011;42191;47.562;9.686;2023-06-14T08:18:23;35.78;;;33.47;;
56285;SDS011;42191;47.562;9.686;2023-06-14T08:20:49;34.42;;;32.22;;
56285;SDS011;42191;47.562;9.686;2023-06-14T08:23:17;35.22;;;32.83;;
56285;SDS011;42191;47.562;9.686;2023-06-14T08:25:44;34.67;;;32.38;;
56285;SDS011;42191;47.562;9.686;2023-06-14T08:28:10;35.20;;;32.80;;
56285;SDS011;42191;47.562;9.686;2023-06-14T08:30:36;33.58;;;31.27;;
56285;SDS011;42191;47.562;9.686;2023-06-14T08:33:02;34.38;;;32.17;;
56285;SDS011;42191;47.562;9.686;2023-06-14T08:35:28;34.97;;;32.47;;
56285;SDS011;42191;47.562;9.686;2023-06-14T08:37:54;35.53;;;32.97;;
56285;SDS011;42191;47.562;9.686;2023-06-14T08:40:21;34.28;;;31.90;;
56285;SDS011;42191;47.562;9.686;2023-06-14T08:42:52;35.42;;;33.00;;
56285;SDS011;42191;47.562;9.686;2023-06-14T08:45:23;34.38;;;32.08;;
56285;SDS011;42191;47.562;9.686;2023-06-14T08:47:50;35.83;;;33.40;;
56285;SDS011;42191;47.562;9.686;2023-06-14T08:50:26;34.17;;;31.83;;
56285;SDS011;42191;47.562;9.686;2023-06-14T08:52:55;34.83;;;32.53;;
56285;SDS011;42191;47.562;9.686;2023-06-14T08:55:25;34.63;;;32.33;;
56285;SDS011;42191;47.562;9.686;2023-06-14T08:57:53;35.25;;;32.85;;
56285;SDS011;42191;47.562;9.686;2023-06-14T09:00:22;34.90;;;32.50;;
56285;SDS011;42191;47.562;9.686;2023-06-14T09:02:50;34.33;;;31.92;;
56285;SDS011;42191;47.562;9.686;2023-06-14T09:05:21;34.72;;;32.42;;
56285;SDS011;42191;47.562;9.686;2023-06-14T09:07:51;35.30;;;33.00;;
56285;SDS011;42191;47.562;9.686;2023-06-14T09:10:20;35.60;;;33.08;;
56285;SDS011;42191;47.562;9.686;2023-06-14T09:12:47;35.13;;;32.63;;
56285;SDS011;42191;47.562;9.686;2023-06-14T09:15:13;35.20;;;32.75;;
56285;SDS011;42191;47.562;9.686;2023-06-14T09:17:39;35.42;;;33.05;;
56285;SDS011;42191;47.562;9.686;2023-06-14T09:20:07;34.55;;;32.22;;
56285;SDS011;42191;47.562;9.686;2023-06-14T09:22:43;34.67;;;32.17;;
56285;SDS011;42191;47.562;9.686;2023-06-14T09:25:10;33.05;;;30.85;;
56285;SDS011;42191;47.562;9.686;2023-06-14T09:27:40;33.53;;;31.25;;
56285;SDS011;42191;47.562;9.686;2023-06-14T09:30:08;33.42;;;31.25;;
56285;SDS011;42191;47.562;9.686;2023-06-14T09:32:38;34.63;;;32.33;;
56285;SDS011;42191;47.562;9.686;2023-06-14T09:35:08;33.72;;;31.60;;
56285;SDS011;42191;47.562;9.686;2023-06-14T09:37:34;35.00;;;32.78;;
56285;SDS011;42191;47.562;9.686;2023-06-14T09:40:03;35.83;;;33.42;;
56285;SDS011;42191;47.562;9.686;2023-06-14T09:42:30;33.30;;;30.90;;
56285;SDS011;42191;47.562;9.686;2023-06-14T09:44:56;34.45;;;32.15;;
56285;SDS011;42191;47.562;9.686;2023-06-14T09:47:23;32.83;;;30.70;;
56285;SDS011;42191;47.562;9.686;2023-06-14T09:49:50;34.53;;;32.33;;
56285;SDS011;42191;47.562;9.686;2023-06-14T09:52:19;33.67;;;31.38;;
56285;SDS011;42191;47.562;9.686;2023-06-14T09:54:47;33.40;;;31.20;;
56285;SDS011;42191;47.562;9.686;2023-06-14T09:57:16;32.67;;;30.58;;
56285;SDS011;42191;47.562;9.686;2023-06-14T09:59:47;34.08;;;31.88;;
56285;SDS011;42191;47.562;9.686;2023-06-14T10:02:26;33.50;;;30.90;;
56285;SDS011;42191;47.562;9.686;2023-06-14T10:05:08;33.05;;;30.85;;
56285;SDS011;42191;47.562;9.686;2023-06-14T10:07:50;33.13;;;31.02;;
56285;SDS011;42191;47.562;9.686;2023-06-14T10:10:24;33.35;;;31.15;;
56285;SDS011;42191;47.562;9.686;2023-06-14T10:12:50;32.80;;;30.73;;
56285;SDS011;42191;47.562;9.686;2023-06-14T10:15:19;33.38;;;31.20;;
56285;SDS011;42191;47.562;9.686;2023-06-14T10:17:57;32.60;;;30.48;;
56285;SDS011;42191;47.562;9.686;2023-06-14T10:20:39;32.05;;;30.02;;
56285;SDS011;42191;47.562;9.686;2023-06-14T10:23:17;33.67;;;31.20;;
56285;SDS011;42191;47.562;9.686;2023-06-14T10:25:49;33.25;;;30.95;;
56285;SDS011;42191;47.562;9.686;2023-06-14T10:28:19;34.72;;;31.98;;
56285;SDS011;42191;47.562;9.686;2023-06-14T10:31:01;32.53;;;30.23;;
56285;SDS011;42191;47.562;9.686;2023-06-14T10:33:32;34.28;;;32.08;;
56285;SDS011;42191;47.562;9.686;2023-06-14T10:39:01;31.92;;;29.88;;
56285;SDS011;42191;47.562;9.686;2023-06-14T10:41:36;31.95;;;29.85;;
56285;SDS011;42191;47.562;9.686;2023-06-14T10:46:39;33.30;;;31.10;;
56285;SDS011;42191;47.562;9.686;2023-06-14T10:49:10;33.38;;;30.95;;
56285;SDS011;42191;47.562;9.686;2023-06-14T10:51:41;33.33;;;31.13;;
56285;SDS011;42191;47.562;9.686;2023-06-14T10:54:11;31.73;;;29.52;;
56285;SDS011;42191;47.562;9.686;2023-06-14T10:56:50;31.77;;;29.67;;
56285;SDS011;42191;47.562;9.686;2023-06-14T10:59:19;33.28;;;31.05;;
56285;SDS011;42191;47.562;9.686;2023-06-14T11:08:00;32.15;;;29.73;;
56285;SDS011;42191;47.562;9.686;2023-06-14T11:10:39;31.27;;;29.23;;
56285;SDS011;42191;47.562;9.686;2023-06-14T11:13:07;30.88;;;28.63;;
56285;SDS011;42191;47.562;9.686;2023-06-14T11:15:34;32.20;;;30.13;;
56285;SDS011;42191;47.562;9.686;2023-06-14T11:18:01;30.80;;;28.80;;
56285;SDS011;42191;47.562;9.686;2023-06-14T11:20:30;32.45;;;30.25;;
56285;SDS011;42191;47.562;9.686;2023-06-14T11:22:57;31.08;;;29.08;;
56285;SDS011;42191;47.562;9.686;2023-06-14T11:25:24;31.67;;;29.50;;
56285;SDS011;42191;47.562;9.686;2023-06-14T11:27:51;31.45;;;29.35;;
56285;SDS011;42191;47.562;9.686;2023-06-14T11:30:18;30.73;;;28.63;;
56285;SDS011;42191;47.562;9.686;2023-06-14T11:32:51;30.17;;;27.98;;
56285;SDS011;42191;47.562;9.686;2023-06-14T11:35:18;30.42;;;28.52;;
56285;SDS011;42191;47.562;9.686;2023-06-14T11:37:48;30.35;;;28.10;;
56285;SDS011;42191;47.562;9.686;2023-06-14T11:40:17;30.67;;;28.52;;
56285;SDS011;42191;47.562;9.686;2023-06-14T11:42:43;30.15;;;28.23;;
56285;SDS011;42191;47.562;9.686;2023-06-14T11:45:10;31.23;;;29.23;;
56285;SDS011;42191;47.562;9.686;2023-06-14T11:47:37;29.67;;;27.63;;
56285;SDS011;42191;47.562;9.686;2023-06-14T11:50:05;31.15;;;28.95;;
56285;SDS011;42191;47.562;9.686;2023-06-14T11:52:38;31.52;;;29.38;;
56285;SDS011;42191;47.562;9.686;2023-06-14T11:55:05;30.33;;;28.23;;
56285;SDS011;42191;47.562;9.686;2023-06-14T11:57:35;30.83;;;28.73;;
56285;SDS011;42191;47.562;9.686;2023-06-14T12:00:04;29.83;;;27.80;;
56285;SDS011;42191;47.562;9.686;2023-06-14T12:02:37;30.48;;;28.20;;
56285;SDS011;42191;47.562;9.686;2023-06-14T12:05:05;29.52;;;27.63;;
56285;SDS011;42191;47.562;9.686;2023-06-14T12:07:34;29.63;;;27.33;;
56285;SDS011;42191;47.562;9.686;2023-06-14T12:12:36;31.70;;;29.67;;
56285;SDS011;42191;47.562;9.686;2023-06-14T12:15:04;30.05;;;28.10;;
56285;SDS011;42191;47.562;9.686;2023-06-14T12:17:34;31.10;;;28.90;;
56285;SDS011;42191;47.562;9.686;2023-06-14T12:20:06;30.17;;;28.25;;
56285;SDS011;42191;47.562;9.686;2023-06-14T12:22:36;30.42;;;28.33;;
56285;SDS011;42191;47.562;9.686;2023-06-14T12:25:05;28.92;;;27.02;;
56285;SDS011;42191;47.562;9.686;2023-06-14T12:27:34;30.55;;;28.55;;
56285;SDS011;42191;47.562;9.686;2023-06-14T12:30:03;30.20;;;27.98;;
56285;SDS011;42191;47.562;9.686;2023-06-14T12:32:32;30.67;;;28.58;;
56285;SDS011;42191;47.562;9.686;2023-06-14T12:34:58;31.02;;;28.90;;
56285;SDS011;42191;47.562;9.686;2023-06-14T12:37:24;29.17;;;27.27;;
56285;SDS011;42191;47.562;9.686;2023-06-14T12:39:50;31.50;;;29.50;;
56285;SDS011;42191;47.562;9.686;2023-06-14T12:42:16;32.22;;;30.02;;
56285;SDS011;42191;47.562;9.686;2023-06-14T12:44:43;30.88;;;28.67;;
56285;SDS011;42191;47.562;9.686;2023-06-14T12:47:09;31.35;;;29.35;;
56285;SDS011;42191;47.562;9.686;2023-06-14T12:49:35;29.42;;;27.33;;
56285;SDS011;42191;47.562;9.686;2023-06-14T12:52:01;30.20;;;28.20;;
56285;SDS011;42191;47.562;9.686;2023-06-14T12:54:27;30.13;;;28.02;;
56285;SDS011;42191;47.562;9.686;2023-06-14T12:56:54;29.85;;;27.55;;
56285;SDS011;42191;47.562;9.686;2023-06-14T12:59:20;31.20;;;29.00;;
56285;SDS011;42191;47.562;9.686;2023-06-14T13:01:46;29.58;;;27.50;;
56285;SDS011;42191;47.562;9.686;2023-06-14T13:04:15;29.58;;;27.60;;
56285;SDS011;42191;47.562;9.686;2023-06-14T13:06:41;29.58;;;27.20;;
56285;SDS011;42191;47.562;9.686;2023-06-14T13:09:07;27.50;;;25.60;;
56285;SDS011;42191;47.562;9.686;2023-06-14T13:11:33;25.30;;;23.60;;
56285;SDS011;42191;47.562;9.686;2023-06-14T13:14:00;26.52;;;24.73;;
56285;SDS011;42191;47.562;9.686;2023-06-14T13:16:26;25.33;;;23.67;;
56285;SDS011;42191;47.562;9.686;2023-06-14T13:18:52;25.30;;;23.70;;
56285;SDS011;42191;47.562;9.686;2023-06-14T13:21:18;24.80;;;23.20;;
56285;SDS011;42191;47.562;9.686;2023-06-14T13:23:44;25.08;;;23.30;;
56285;SDS011;42191;47.562;9.686;2023-06-14T13:26:10;23.73;;;22.17;;
56285;SDS011;42191;47.562;9.686;2023-06-14T13:28:37;23.85;;;22.35;;
56285;SDS011;42191;47.562;9.686;2023-06-14T13:31:03;24.30;;;22.67;;
56285;SDS011;42191;47.562;9.686;2023-06-14T13:33:29;23.48;;;21.98;;
56285;SDS011;42191;47.562;9.686;2023-06-14T13:35:56;23.33;;;21.83;;
56285;SDS011;42191;47.562;9.686;2023-06-14T13:38:22;23.30;;;21.85;;
56285;SDS011;42191;47.562;9.686;2023-06-14T13:40:48;23.25;;;21.75;;
56285;SDS011;42191;47.562;9.686;2023-06-14T13:43:14;22.77;;;21.35;;
56285;SDS011;42191;47.562;9.686;2023-06-14T13:45:40;22.92;;;21.42;;
56285;SDS011;42191;47.562;9.686;2023-06-14T13:48:07;23.27;;;21.80;;
56285;SDS011;42191;47.562;9.686;2023-06-14T13:50:33;22.75;;;21.05;;
56285;SDS011;42191;47.562;9.686;2023-06-14T13:52:59;23.02;;;21.55;;
56285;SDS011;42191;47.562;9.686;2023-06-14T13:55:25;23.98;;;22.33;;
56285;SDS011;42191;47.562;9.686;2023-06-14T13:57:51;23.90;;;22.25;;
56285;SDS011;42191;47.562;9.686;2023-06-14T14:00:17;23.60;;;22.00;;
56285;SDS011;42191;47.562;9.686;2023-06-14T14:02:44;23.30;;;21.80;;
56285;SDS011;42191;47.562;9.686;2023-06-14T14:05:10;22.13;;;20.67;;
56285;SDS011;42191;47.562;9.686;2023-06-14T14:07:36;22.90;;;21.15;;
56285;SDS011;42191;47.562;9.686;2023-06-14T14:10:03;22.27;;;20.88;;
56285;SDS011;42191;47.562;9.686;2023-06-14T14:12:29;22.40;;;20.60;;
56285;SDS011;42191;47.562;9.686;2023-06-14T14:14:56;23.00;;;21.40;;
56285;SDS011;42191;47.562;9.686;2023-06-14T14:17:22;21.65;;;20.35;;
56285;SDS011;42191;47.562;9.686;2023-06-14T14:19:48;23.00;;;21.50;;
56285;SDS011;42191;47.562;9.686;2023-06-14T14:22:14;22.95;;;21.25;;
56285;SDS011;42191;47.562;9.686;2023-06-14T14:24:40;23.33;;;21.73;;
56285;SDS011;42191;47.562;9.686;2023-06-14T14:27:06;23.38;;;21.73;;
56285;SDS011;42191;47.562;9.686;2023-06-14T14:29:32;22.85;;;21.45;;
56285;SDS011;42191;47.562;9.686;2023-06-14T14:31:58;23.35;;;21.95;;
56285;SDS011;42191;47.562;9.686;2023-06-14T14:34:25;22.58;;;21.08;;
56285;SDS011;42191;47.562;9.686;2023-06-14T14:36:51;23.42;;;21.92;;
56285;SDS011;42191;47.562;9.686;2023-06-14T14:39:17;22.75;;;21.35;;
56285;SDS011;42191;47.562;9.686;2023-06-14T14:41:43;23.30;;;21.85;;
56285;SDS011;42191;47.562;9.686;2023-06-14T14:44:09;22.98;;;21.38;;
56285;SDS011;42191;47.562;9.686;2023-06-14T14:46:35;22.55;;;21.15;;